Decoded Metar for CYXR (EARLTON in ON, CANADA) (IATA:YXR) | Meteo·Mobile Aviation Weather
aviador You're here:

CYXR Decoded Metar

EARLTON in ON, CANADA
Report Time2019-06-18 15:00:00
UTC Time2019-06-18 15:23:27
Flight Rules vfr VFR
Wind360° at 04 kt
W.Decomp.*RWY 34: 3.4 kt HW 2.1 kt RCW
RWY 08: 1.5 kt HW 3.7 kt LCW
Visibility9999 m
Phenomena:N/A
Clouds:Scattered 085 Hf
Expected CloudBase > 3,200 ft AGL from Temp-Dew spread
CeilingNone
Temp18°C (ISA +5)
Dew Point10°C (60% RH)
AAT16.6°C
QNH1015 hPa
Density Alt1,437 ft
Elevation797 ft
Report Wrong Elevation
Raw Report
CYXR 181500Z AUTO 36004KT 320V090 9SM SCT085 18/10 A2996 RMK
SLP148 DENSITY ALT 1300FT=

Extra information for CYXR:More info

Metar Taf Metar & Taf Last 4 Metars F.Rules Stats Wind Profile Meteogram Temp Stats Airport Information Weather charts Add Link Nearby VenuesMetar ALERT Operation Metar Decoded Social comments